createdAt,value
2023-02-05T00:01:35.391Z,3.92
2023-02-05T00:04:02.809Z,3.10
2023-02-05T00:06:29.882Z,2.67
2023-02-05T00:08:58.145Z,1.98
2023-02-05T00:11:26.414Z,2.95
2023-02-05T00:13:53.789Z,1.50
2023-02-05T00:16:22.547Z,3.22
2023-02-05T00:18:49.976Z,2.35
2023-02-05T00:21:18.601Z,6.07
2023-02-05T00:23:45.847Z,4.45
2023-02-05T00:26:15.917Z,3.58
2023-02-05T00:28:43.161Z,3.80
2023-02-05T00:31:12.748Z,2.72
2023-02-05T00:33:40.310Z,1.75
2023-02-05T00:36:08.524Z,2.40
2023-02-05T00:38:36.227Z,1.67
2023-02-05T00:41:03.514Z,3.00
2023-02-05T00:43:30.730Z,2.30
2023-02-05T00:45:57.585Z,1.50
2023-02-05T00:48:24.512Z,1.25
2023-02-05T00:50:52.736Z,2.38
2023-02-05T00:53:20.516Z,2.10
2023-02-05T00:55:47.338Z,2.05
2023-02-05T00:58:14.265Z,2.42
2023-02-05T01:00:41.206Z,2.88
2023-02-05T01:03:08.710Z,2.05
2023-02-05T01:05:37.396Z,3.90
2023-02-05T01:08:05.855Z,2.90
2023-02-05T01:10:33.663Z,3.00
2023-02-05T01:13:00.421Z,3.88
2023-02-05T01:15:27.313Z,2.72
2023-02-05T01:17:54.258Z,2.75
2023-02-05T01:20:21.863Z,3.40
2023-02-05T01:22:49.363Z,3.13
2023-02-05T01:25:16.804Z,3.40
2023-02-05T01:27:44.018Z,2.55
2023-02-05T01:30:11.975Z,3.03
2023-02-05T01:32:40.584Z,3.10
2023-02-05T01:35:08.793Z,3.13
2023-02-05T01:37:35.574Z,3.60
2023-02-05T01:40:02.513Z,4.20
2023-02-05T01:42:31.813Z,4.35
2023-02-05T01:45:23.677Z,3.00
2023-02-05T01:47:59.331Z,4.78
2023-02-05T01:50:53.980Z,3.28
2023-02-05T01:53:29.998Z,2.42
2023-02-05T01:56:29.840Z,3.35
2023-02-05T01:59:16.500Z,3.70
2023-02-05T02:01:44.475Z,2.55
2023-02-05T02:04:12.996Z,2.65
2023-02-05T02:06:39.802Z,2.60
2023-02-05T02:09:07.463Z,2.50
2023-02-05T02:11:38.154Z,1.98
2023-02-05T02:14:07.353Z,2.30
2023-02-05T02:16:38.100Z,1.75
2023-02-05T02:19:12.813Z,1.88
2023-02-05T02:21:57.106Z,1.63
2023-02-05T02:24:26.757Z,1.60
2023-02-05T02:26:59.442Z,1.30
2023-02-05T02:29:37.544Z,2.28
2023-02-05T02:32:16.600Z,4.25
2023-02-05T02:34:55.508Z,2.28
2023-02-05T02:37:47.526Z,4.70
2023-02-05T02:40:46.404Z,4.00
2023-02-05T02:43:25.070Z,3.10
2023-02-05T02:46:00.134Z,2.92
2023-02-05T02:48:29.432Z,2.33
2023-02-05T02:50:58.700Z,2.13
2023-02-05T02:53:31.002Z,2.95
2023-02-05T02:56:01.338Z,1.73
2023-02-05T02:58:32.957Z,1.17
2023-02-05T03:01:01.991Z,2.08
2023-02-05T03:03:31.847Z,2.22
2023-02-05T03:06:00.228Z,3.15
2023-02-05T03:08:51.206Z,2.05
2023-02-05T03:11:18.036Z,2.08
2023-02-05T03:13:45.365Z,1.90
2023-02-05T03:16:14.439Z,1.80
2023-02-05T03:18:42.640Z,1.55
2023-02-05T03:21:21.370Z,1.90
2023-02-05T03:23:49.372Z,1.40
2023-02-05T03:26:23.261Z,2.03
2023-02-05T03:28:50.476Z,1.40
2023-02-05T03:31:29.519Z,1.88
2023-02-05T03:34:35.760Z,1.17
2023-02-05T03:37:05.642Z,2.92
2023-02-05T03:39:46.029Z,3.42
2023-02-05T03:42:24.093Z,3.25
2023-02-05T03:45:30.133Z,1.85
2023-02-05T03:48:23.198Z,2.78
2023-02-05T03:51:19.054Z,1.67
2023-02-05T03:54:04.307Z,1.58
2023-02-05T03:56:39.251Z,1.50
2023-02-05T03:59:07.087Z,1.48
2023-02-05T04:01:35.376Z,1.35
2023-02-05T04:04:02.285Z,1.25
2023-02-05T04:06:29.508Z,1.42
2023-02-05T04:08:56.685Z,1.80
2023-02-05T04:11:23.486Z,1.17
2023-02-05T04:13:50.306Z,1.42
2023-02-05T04:16:17.229Z,2.28
2023-02-05T04:18:44.014Z,1.17
2023-02-05T04:21:10.829Z,1.45
2023-02-05T04:23:37.606Z,1.85
2023-02-05T04:26:04.599Z,1.70
2023-02-05T04:28:31.461Z,2.53
2023-02-05T04:30:58.267Z,1.70
2023-02-05T04:33:25.115Z,1.98
2023-02-05T04:35:51.936Z,2.22
2023-02-05T04:38:18.724Z,1.55
2023-02-05T04:40:45.925Z,2.40
2023-02-05T04:43:12.972Z,1.17
2023-02-05T04:45:39.886Z,1.20
2023-02-05T04:48:06.760Z,1.38
2023-02-05T04:50:33.858Z,2.00
2023-02-05T04:53:02.288Z,3.53
2023-02-05T04:55:30.712Z,1.30
2023-02-05T04:57:57.662Z,1.60
2023-02-05T05:00:25.120Z,1.83
2023-02-05T05:02:52.327Z,2.20
2023-02-05T05:05:19.545Z,1.33
2023-02-05T05:07:46.374Z,1.67
2023-02-05T05:10:13.225Z,3.45
2023-02-05T05:12:40.222Z,1.80
2023-02-05T05:15:08.111Z,1.13
2023-02-05T05:17:35.631Z,2.80
2023-02-05T05:20:03.417Z,1.80
2023-02-05T05:22:30.247Z,3.33
2023-02-05T05:24:57.026Z,1.88
2023-02-05T05:27:24.362Z,2.08
2023-02-05T05:29:51.245Z,1.83
2023-02-05T05:32:18.139Z,3.45
2023-02-05T05:34:45.365Z,1.63
2023-02-05T05:37:12.135Z,1.70
2023-02-05T05:39:58.222Z,1.58
2023-02-05T05:42:43.720Z,1.13
2023-02-05T05:45:10.600Z,1.58
2023-02-05T05:47:37.561Z,2.35
2023-02-05T05:50:04.759Z,4.78
2023-02-05T05:52:32.600Z,11.75
2023-02-05T05:55:00.251Z,13.20
2023-02-05T05:57:27.170Z,28.10
2023-02-05T05:59:54.330Z,37.60
2023-02-05T06:02:21.554Z,19.70
2023-02-05T06:04:48.475Z,14.80
2023-02-05T06:07:15.643Z,3.92
2023-02-05T06:09:42.858Z,2.65
2023-02-05T06:12:11.680Z,3.60
2023-02-05T06:14:39.151Z,3.13
2023-02-05T06:17:07.365Z,2.65
2023-02-05T06:19:34.202Z,3.95
2023-02-05T06:22:01.030Z,4.32
2023-02-05T06:24:30.799Z,2.80
2023-02-05T06:26:58.160Z,2.92
2023-02-05T06:29:25.059Z,3.75
2023-02-05T06:31:52.497Z,3.20
2023-02-05T06:34:19.767Z,4.55
2023-02-05T06:36:46.729Z,1.58
2023-02-05T06:39:13.684Z,1.90
2023-02-05T06:41:40.859Z,3.80
2023-02-05T06:44:07.696Z,3.22
2023-02-05T06:46:34.821Z,3.83
2023-02-05T06:49:01.790Z,3.60
2023-02-05T06:51:28.589Z,2.03
2023-02-05T06:53:57.257Z,2.58
2023-02-05T06:56:24.608Z,2.20
2023-02-05T06:58:51.924Z,3.03
2023-02-05T07:01:19.200Z,4.32
2023-02-05T07:03:47.718Z,4.10
2023-02-05T07:06:14.558Z,4.47
2023-02-05T07:08:41.296Z,5.32
2023-02-05T07:11:08.054Z,9.73
2023-02-05T07:13:34.963Z,11.50
2023-02-05T07:16:05.881Z,9.88
2023-02-05T07:18:34.312Z,6.75
2023-02-05T07:21:10.148Z,5.13
2023-02-05T07:23:37.205Z,4.43
2023-02-05T07:26:16.041Z,9.48
2023-02-05T07:28:43.508Z,7.80
2023-02-05T07:31:15.388Z,5.35
2023-02-05T07:33:43.231Z,10.48
2023-02-05T07:36:11.696Z,11.95
2023-02-05T07:38:38.505Z,13.43
2023-02-05T07:41:07.309Z,5.32
2023-02-05T07:43:35.537Z,6.57
2023-02-05T07:46:04.983Z,8.63
2023-02-05T07:48:32.175Z,5.72
2023-02-05T07:50:59.216Z,4.10
2023-02-05T07:53:26.429Z,6.75
2023-02-05T07:55:53.656Z,7.97
2023-02-05T07:58:20.650Z,6.40
2023-02-05T08:00:47.797Z,6.30
2023-02-05T08:03:15.060Z,7.05
2023-02-05T08:05:41.847Z,3.95
2023-02-05T08:08:09.930Z,3.75
2023-02-05T08:10:36.667Z,3.92
2023-02-05T08:13:03.552Z,4.97
2023-02-05T08:15:30.375Z,4.90
2023-02-05T08:17:57.164Z,4.40
2023-02-05T08:20:24.002Z,4.20
2023-02-05T08:22:50.809Z,2.83
2023-02-05T08:25:18.126Z,3.22
2023-02-05T08:27:46.210Z,5.10
2023-02-05T08:30:15.929Z,4.45
2023-02-05T08:32:42.758Z,3.15
2023-02-05T08:35:09.597Z,7.70
2023-02-05T08:37:36.430Z,7.00
2023-02-05T08:40:03.390Z,6.40
2023-02-05T08:42:30.266Z,6.05
2023-02-05T08:44:58.626Z,10.65
2023-02-05T08:47:26.586Z,4.18
2023-02-05T08:49:53.590Z,3.75
2023-02-05T08:52:20.574Z,3.45
2023-02-05T08:54:48.192Z,7.00
2023-02-05T08:57:16.674Z,3.83
2023-02-05T08:59:43.728Z,3.88
2023-02-05T09:02:17.185Z,3.03
2023-02-05T09:04:46.623Z,4.95
2023-02-05T09:07:13.404Z,3.75
2023-02-05T09:09:40.321Z,4.60
2023-02-05T09:12:07.701Z,2.85
2023-02-05T09:14:37.605Z,3.33
2023-02-05T09:17:06.085Z,5.97
2023-02-05T09:19:38.168Z,3.65
2023-02-05T09:22:06.465Z,6.43
2023-02-05T09:24:33.903Z,3.83
2023-02-05T09:27:01.247Z,3.70
2023-02-05T09:29:29.920Z,3.00
2023-02-05T09:31:57.527Z,3.50
2023-02-05T09:34:24.356Z,4.38
2023-02-05T09:36:51.606Z,3.15
2023-02-05T09:39:52.363Z,3.65
2023-02-05T09:42:57.632Z,2.80
2023-02-05T09:45:50.693Z,2.35
2023-02-05T09:48:32.716Z,3.10
2023-02-05T09:51:01.142Z,6.47
2023-02-05T09:53:39.736Z,6.88
2023-02-05T09:56:09.218Z,17.05
2023-02-05T09:58:49.260Z,7.03
2023-02-05T10:01:24.200Z,4.93
2023-02-05T10:04:03.415Z,2.70
2023-02-05T10:06:39.436Z,7.75
2023-02-05T10:09:16.333Z,16.40
2023-02-05T10:12:04.844Z,10.27
2023-02-05T10:14:34.890Z,9.40
2023-02-05T10:17:42.763Z,8.90
2023-02-05T10:20:46.522Z,5.68
2023-02-05T10:23:35.297Z,5.13
2023-02-05T10:26:13.499Z,6.68
2023-02-05T10:29:18.851Z,4.65
2023-02-05T10:32:23.278Z,4.75
2023-02-05T10:35:08.064Z,3.72
2023-02-05T10:38:16.992Z,4.97
2023-02-05T10:40:46.720Z,3.60
2023-02-05T10:43:16.633Z,5.50
2023-02-05T10:45:43.975Z,5.00
2023-02-05T10:48:34.170Z,4.03
2023-02-05T10:51:05.209Z,3.10
2023-02-05T10:53:33.408Z,2.53
2023-02-05T10:56:02.605Z,5.50
2023-02-05T10:58:48.266Z,4.45
2023-02-05T11:01:18.665Z,4.38
2023-02-05T11:03:56.788Z,4.90
2023-02-05T11:06:27.575Z,2.97
2023-02-05T11:08:55.122Z,4.45
2023-02-05T11:11:28.636Z,3.25
2023-02-05T11:14:06.124Z,5.60
2023-02-05T11:16:43.105Z,6.35
2023-02-05T11:19:24.137Z,4.55
2023-02-05T11:22:00.249Z,4.35
2023-02-05T11:24:41.143Z,4.22
2023-02-05T11:27:26.985Z,5.32
2023-02-05T11:29:56.034Z,3.38
2023-02-05T11:32:31.575Z,4.10
2023-02-05T11:35:19.543Z,4.03
2023-02-05T11:38:08.154Z,4.25
2023-02-05T11:40:36.735Z,3.95
2023-02-05T11:43:27.036Z,3.50
2023-02-05T11:45:56.747Z,4.75
2023-02-05T11:48:40.604Z,4.60
2023-02-05T11:51:11.473Z,4.97
2023-02-05T11:53:46.808Z,4.80
2023-02-05T11:56:23.278Z,5.95
2023-02-05T11:58:58.547Z,6.82
2023-02-05T12:01:29.188Z,5.22
2023-02-05T12:04:23.824Z,7.53
2023-02-05T12:06:56.410Z,4.00
2023-02-05T12:09:25.267Z,5.70
2023-02-05T12:12:03.568Z,4.38
2023-02-05T12:14:42.936Z,5.30
2023-02-05T12:17:41.458Z,4.10
2023-02-05T12:20:29.706Z,5.03
2023-02-05T12:23:12.274Z,5.90
2023-02-05T12:26:12.414Z,3.90
2023-02-05T12:29:08.614Z,4.15
2023-02-05T12:32:04.782Z,2.90
2023-02-05T12:34:42.208Z,2.15
2023-02-05T12:37:42.402Z,6.00
2023-02-05T12:40:29.102Z,3.75
2023-02-05T12:43:09.231Z,4.13
2023-02-05T12:45:59.688Z,3.45
2023-02-05T12:48:40.074Z,3.63
2023-02-05T12:51:09.995Z,3.70
2023-02-05T12:53:41.981Z,5.05
2023-02-05T12:56:32.695Z,3.47
2023-02-05T12:59:18.630Z,3.42
2023-02-05T13:01:56.961Z,3.03
2023-02-05T13:04:40.427Z,5.28
2023-02-05T13:07:23.920Z,3.45
2023-02-05T13:10:01.717Z,5.57
2023-02-05T13:12:34.513Z,4.90
2023-02-05T13:15:52.465Z,7.55
2023-02-05T13:18:28.537Z,9.18
2023-02-05T13:21:27.682Z,6.30
2023-02-05T13:24:35.455Z,4.15
2023-02-05T13:27:40.761Z,3.35
2023-02-05T13:30:34.177Z,5.72
2023-02-05T13:33:18.884Z,3.70
2023-02-05T13:36:12.567Z,6.03
2023-02-05T13:39:02.693Z,5.28
2023-02-05T13:42:05.736Z,5.55
2023-02-05T13:45:03.038Z,7.10
2023-02-05T13:47:46.630Z,4.32
2023-02-05T13:50:39.020Z,3.10
2023-02-05T13:56:44.765Z,4.57
2023-02-05T13:59:35.904Z,3.15
2023-02-05T14:02:03.474Z,4.28
2023-02-05T14:04:36.089Z,27.38
2023-02-05T14:07:06.984Z,15.98
2023-02-05T14:09:41.001Z,6.93
2023-02-05T14:12:20.993Z,18.23
2023-02-05T14:15:16.481Z,8.07
2023-02-05T14:17:43.256Z,6.45
2023-02-05T14:20:24.776Z,3.53
2023-02-05T14:22:53.631Z,5.80
2023-02-05T14:25:36.387Z,3.53
2023-02-05T14:28:16.474Z,6.20
2023-02-05T14:31:00.566Z,7.68
2023-02-05T14:33:42.228Z,7.00
2023-02-05T14:36:22.384Z,7.90
2023-02-05T14:39:04.931Z,7.03
2023-02-05T14:41:41.077Z,6.05
2023-02-05T14:44:30.379Z,9.65
2023-02-05T14:47:08.573Z,4.95
2023-02-05T14:49:39.748Z,5.05
2023-02-05T14:52:21.135Z,3.67
2023-02-05T14:54:54.520Z,4.20
2023-02-05T14:57:28.992Z,5.90
2023-02-05T15:00:12.060Z,5.07
2023-02-05T15:03:01.074Z,6.75
2023-02-05T15:05:40.050Z,16.65
2023-02-05T15:08:25.867Z,7.13
2023-02-05T15:11:24.962Z,10.10
2023-02-05T15:14:30.774Z,9.18
2023-02-05T15:17:07.471Z,10.00
2023-02-05T15:19:41.275Z,12.85
2023-02-05T15:22:20.244Z,6.25
2023-02-05T15:24:49.263Z,6.45
2023-02-05T15:27:21.702Z,7.13
2023-02-05T15:29:57.465Z,9.30
2023-02-05T15:32:32.057Z,7.28
2023-02-05T15:35:05.223Z,5.40
2023-02-05T15:37:43.249Z,3.30
2023-02-05T15:40:19.316Z,7.32
2023-02-05T15:42:50.695Z,6.03
2023-02-05T15:45:18.495Z,6.30
2023-02-05T15:47:45.448Z,8.85
2023-02-05T15:50:15.925Z,5.65
2023-02-05T15:52:42.950Z,6.18
2023-02-05T15:55:13.380Z,7.25
2023-02-05T15:57:40.565Z,5.55
2023-02-05T16:00:09.879Z,11.18
2023-02-05T16:02:36.952Z,7.40
2023-02-05T16:05:20.025Z,5.80
2023-02-05T16:07:51.808Z,4.78
2023-02-05T16:10:26.080Z,5.78
2023-02-05T16:13:04.630Z,8.40
2023-02-05T16:15:34.912Z,7.80
2023-02-05T16:18:06.619Z,7.63
2023-02-05T16:20:39.085Z,8.23
2023-02-05T16:23:14.442Z,5.45
2023-02-05T16:25:43.410Z,9.55
2023-02-05T16:28:23.643Z,11.25
2023-02-05T16:30:55.067Z,11.23
2023-02-05T16:33:24.974Z,13.93
2023-02-05T16:35:52.773Z,14.38
2023-02-05T16:38:23.329Z,9.73
2023-02-05T16:40:57.261Z,9.55
2023-02-05T16:43:30.343Z,7.55
2023-02-05T16:46:06.699Z,14.32
2023-02-05T16:48:41.712Z,46.25
2023-02-05T16:51:31.773Z,60.60
2023-02-05T16:54:00.777Z,17.45
2023-02-05T16:56:35.946Z,18.23
2023-02-05T16:59:04.765Z,66.75
2023-02-05T17:01:42.865Z,35.60
2023-02-05T17:04:27.905Z,44.90
2023-02-05T17:06:57.903Z,23.98
2023-02-05T17:09:34.885Z,21.40
2023-02-05T17:12:21.934Z,15.32
2023-02-05T17:14:54.627Z,13.35
2023-02-05T17:17:22.009Z,16.52
2023-02-05T17:20:21.506Z,17.08
2023-02-05T17:23:00.424Z,18.17
2023-02-05T17:25:38.142Z,17.15
2023-02-05T17:28:07.254Z,19.60
2023-02-05T17:30:35.050Z,13.40
2023-02-05T17:33:06.408Z,14.07
2023-02-05T17:35:33.877Z,11.32
2023-02-05T17:38:00.704Z,18.23
2023-02-05T17:40:27.714Z,15.07
2023-02-05T17:42:54.845Z,16.77
2023-02-05T17:45:27.372Z,14.40
2023-02-05T17:47:54.178Z,14.30
2023-02-05T17:50:21.880Z,18.17
2023-02-05T17:52:49.528Z,25.73
2023-02-05T17:55:19.058Z,8.20
2023-02-05T17:57:46.457Z,7.15
2023-02-05T18:00:16.796Z,8.23
2023-02-05T18:02:43.656Z,11.63
2023-02-05T18:05:13.417Z,9.35
2023-02-05T18:07:45.250Z,10.45
2023-02-05T18:10:14.124Z,9.23
2023-02-05T18:12:40.996Z,10.95
2023-02-05T18:15:08.780Z,8.55
2023-02-05T18:17:35.585Z,8.45
2023-02-05T18:20:04.339Z,10.40
2023-02-05T18:22:31.719Z,12.23
2023-02-05T18:24:58.914Z,12.05
2023-02-05T18:27:26.110Z,14.75
2023-02-05T18:29:53.293Z,11.32
2023-02-05T18:32:20.473Z,10.07
2023-02-05T18:34:47.258Z,7.05
2023-02-05T18:37:15.178Z,9.35
2023-02-05T18:39:42.308Z,11.35
2023-02-05T18:42:09.575Z,13.60
2023-02-05T18:44:36.374Z,19.33
2023-02-05T18:47:05.108Z,16.33
2023-02-05T18:49:40.198Z,13.77
2023-02-05T18:52:30.480Z,14.40
2023-02-05T18:54:57.651Z,14.18
2023-02-05T18:57:24.498Z,16.65
2023-02-05T18:59:54.072Z,13.75
2023-02-05T19:02:21.437Z,14.70
2023-02-05T19:04:52.112Z,15.55
2023-02-05T19:07:20.572Z,14.15
2023-02-05T19:09:47.347Z,12.00
2023-02-05T19:12:14.570Z,14.60
2023-02-05T19:14:41.857Z,15.50
2023-02-05T19:17:09.206Z,11.20
2023-02-05T19:19:36.144Z,16.15
2023-02-05T19:22:05.966Z,16.85
2023-02-05T19:24:33.066Z,21.45
2023-02-05T19:26:59.990Z,18.20
2023-02-05T19:29:26.975Z,15.68
2023-02-05T19:31:54.457Z,16.35
2023-02-05T19:34:22.310Z,19.95
2023-02-05T19:36:49.603Z,21.02
2023-02-05T19:39:16.685Z,21.35
2023-02-05T19:41:48.337Z,18.15
2023-02-05T19:44:15.373Z,22.48
2023-02-05T19:46:46.671Z,20.48
2023-02-05T19:49:19.401Z,15.93
2023-02-05T19:51:48.147Z,14.20
2023-02-05T19:54:16.098Z,16.35
2023-02-05T19:56:43.857Z,14.25
2023-02-05T19:59:11.177Z,13.85
2023-02-05T20:01:40.593Z,14.63
2023-02-05T20:04:08.958Z,12.07
2023-02-05T20:06:36.126Z,8.75
2023-02-05T20:09:10.710Z,12.70
2023-02-05T20:11:42.485Z,13.18
2023-02-05T20:14:10.546Z,15.00
2023-02-05T20:16:40.190Z,12.15
2023-02-05T20:19:10.174Z,11.35
2023-02-05T20:21:37.966Z,7.70
2023-02-05T20:24:05.605Z,19.55
2023-02-05T20:26:33.555Z,9.35
2023-02-05T20:29:19.591Z,10.68
2023-02-05T20:31:49.528Z,8.98
2023-02-05T20:34:20.321Z,10.05
2023-02-05T20:36:56.056Z,11.68
2023-02-05T20:39:28.792Z,11.68
2023-02-05T20:41:58.479Z,12.98
2023-02-05T20:44:28.647Z,11.40
2023-02-05T20:46:55.959Z,11.70
2023-02-05T20:49:23.573Z,11.32
2023-02-05T20:51:55.556Z,11.60
2023-02-05T20:54:23.249Z,10.70
2023-02-05T20:56:51.731Z,11.25
2023-02-05T20:59:18.665Z,21.42
2023-02-05T21:01:46.001Z,16.60
2023-02-05T21:04:12.942Z,12.35
2023-02-05T21:06:40.851Z,15.85
2023-02-05T21:09:09.103Z,10.65
2023-02-05T21:11:37.275Z,15.38
2023-02-05T21:14:04.130Z,13.60
2023-02-05T21:16:31.429Z,10.07
2023-02-05T21:18:58.411Z,10.60
2023-02-05T21:21:33.500Z,7.38
2023-02-05T21:24:02.790Z,7.70
2023-02-05T21:26:31.360Z,7.35
2023-02-05T21:29:01.428Z,6.45
2023-02-05T21:31:33.935Z,4.90
2023-02-05T21:34:06.219Z,8.07
2023-02-05T21:36:33.793Z,5.90
2023-02-05T21:39:01.036Z,5.40
2023-02-05T21:41:28.290Z,5.25
2023-02-05T21:43:57.574Z,5.78
2023-02-05T21:46:25.943Z,6.30
2023-02-05T21:48:54.839Z,8.23
2023-02-05T21:51:24.626Z,5.13
2023-02-05T21:53:57.174Z,8.10
2023-02-05T21:56:26.123Z,5.93
2023-02-05T21:58:53.000Z,7.20
2023-02-05T22:01:22.363Z,6.35
2023-02-05T22:03:52.267Z,5.18
2023-02-05T22:06:20.545Z,5.50
2023-02-05T22:08:50.521Z,5.85
2023-02-05T22:11:21.301Z,7.40
2023-02-05T22:13:50.096Z,6.82
2023-02-05T22:16:26.807Z,6.05
2023-02-05T22:18:55.524Z,5.50
2023-02-05T22:21:25.532Z,6.15
2023-02-05T22:23:53.931Z,6.20
2023-02-05T22:26:25.661Z,3.78
2023-02-05T22:28:52.849Z,5.88
2023-02-05T22:31:21.161Z,6.38
2023-02-05T22:33:49.605Z,3.25
2023-02-05T22:36:20.344Z,4.57
2023-02-05T22:38:48.474Z,6.00
2023-02-05T22:41:21.293Z,5.63
2023-02-05T22:43:51.498Z,5.43
2023-02-05T22:46:23.922Z,7.85
2023-02-05T22:48:52.400Z,6.90
2023-02-05T22:51:22.729Z,3.97
2023-02-05T22:53:49.540Z,4.32
2023-02-05T22:56:17.841Z,5.00
2023-02-05T22:58:46.811Z,4.45
2023-02-05T23:01:24.446Z,4.95
2023-02-05T23:03:52.145Z,6.00
2023-02-05T23:06:25.197Z,5.35
2023-02-05T23:08:57.955Z,4.80
2023-02-05T23:14:01.153Z,8.00
2023-02-05T23:17:14.512Z,7.20
2023-02-05T23:26:13.016Z,8.95
2023-02-05T23:28:40.066Z,6.70
2023-02-05T23:31:07.378Z,7.28
2023-02-05T23:33:37.604Z,7.55
2023-02-05T23:36:06.067Z,6.63
2023-02-05T23:38:41.560Z,5.15
2023-02-05T23:41:08.929Z,4.20
2023-02-05T23:43:37.056Z,4.68
2023-02-05T23:46:05.738Z,6.35
2023-02-05T23:48:33.891Z,8.15
2023-02-05T23:51:35.569Z,5.53
2023-02-05T23:54:03.600Z,8.50
2023-02-05T23:56:30.588Z,9.13
2023-02-05T23:59:21.977Z,11.88
